Aguilares, Texas
Current Conditions -  °F | °C
As of 12:35 AM on Friday 19 Dec 2014 (Local Time) from KHBV Reporting Station
Overcast Overcast  
Wind Chill: 18°   Ceiling: 200
Heat Index: 18°   Visibility: 1.7mi
Dew Point: 18°   Wind: 0mph
Humidity: 98%   Direction: NA
Pressure: 30"   Gusts: NA
Location:  27.4459°N, 99.0184°W
Report Text: KHBV 190635Z AUTO 00000KT 1 3/4SM OVC002 18/18 A3000 RMK AO2 T01800176 PWINO
Loading
Personal Weather Stations






























Interactive Weather Map New forecast layout! Learn more

10-Day Weather Forecast

Advertisements
Track Severe Weather on mobile